sensor_id;sensor_type;location;lat;lon;timestamp;temperature;humidity
15156;DHT22;7678;50.058;8.306;2022-10-16T00:01:48;13.50;99.90
15156;DHT22;7678;50.058;8.306;2022-10-16T00:04:17;13.40;99.90
15156;DHT22;7678;50.058;8.306;2022-10-16T00:06:46;13.40;99.90
15156;DHT22;7678;50.058;8.306;2022-10-16T00:09:14;13.30;99.90
15156;DHT22;7678;50.058;8.306;2022-10-16T00:11:42;13.40;99.90
15156;DHT22;7678;50.058;8.306;2022-10-16T00:14:13;13.40;99.90
15156;DHT22;7678;50.058;8.306;2022-10-16T00:16:42;13.30;99.90
15156;DHT22;7678;50.058;8.306;2022-10-16T00:19:12;13.30;99.90
15156;DHT22;7678;50.058;8.306;2022-10-16T00:21:44;13.40;99.90
15156;DHT22;7678;50.058;8.306;2022-10-16T00:24:17;13.50;99.90
15156;DHT22;7678;50.058;8.306;2022-10-16T00:26:45;13.40;99.90
15156;DHT22;7678;50.058;8.306;2022-10-16T00:29:16;13.50;99.90
15156;DHT22;7678;50.058;8.306;2022-10-16T00:31:44;13.50;99.90
15156;DHT22;7678;50.058;8.306;2022-10-16T00:34:15;13.50;99.90
15156;DHT22;7678;50.058;8.306;2022-10-16T00:36:44;13.50;99.90
15156;DHT22;7678;50.058;8.306;2022-10-16T00:39:12;13.50;99.90
15156;DHT22;7678;50.058;8.306;2022-10-16T00:41:40;13.50;99.90
15156;DHT22;7678;50.058;8.306;2022-10-16T00:44:42;13.50;99.90
15156;DHT22;7678;50.058;8.306;2022-10-16T00:47:15;13.50;99.90
15156;DHT22;7678;50.058;8.306;2022-10-16T00:49:46;13.50;99.90
15156;DHT22;7678;50.058;8.306;2022-10-16T00:52:15;13.50;99.90
15156;DHT22;7678;50.058;8.306;2022-10-16T00:54:46;13.50;99.90
15156;DHT22;7678;50.058;8.306;2022-10-16T00:57:15;13.50;99.90
15156;DHT22;7678;50.058;8.306;2022-10-16T00:59:46;13.50;99.90
15156;DHT22;7678;50.058;8.306;2022-10-16T01:02:15;13.50;99.90
15156;DHT22;7678;50.058;8.306;2022-10-16T01:04:48;13.60;99.90
15156;DHT22;7678;50.058;8.306;2022-10-16T01:07:24;13.60;99.90
15156;DHT22;7678;50.058;8.306;2022-10-16T01:10:06;13.60;99.90
15156;DHT22;7678;50.058;8.306;2022-10-16T01:12:45;13.60;99.90
15156;DHT22;7678;50.058;8.306;2022-10-16T01:15:20;13.60;99.90
15156;DHT22;7678;50.058;8.306;2022-10-16T01:17:56;13.60;99.90
15156;DHT22;7678;50.058;8.306;2022-10-16T01:20:32;13.60;99.90
15156;DHT22;7678;50.058;8.306;2022-10-16T01:23:15;13.50;99.90
15156;DHT22;7678;50.058;8.306;2022-10-16T01:25:56;13.50;99.90
15156;DHT22;7678;50.058;8.306;2022-10-16T01:28:34;13.50;99.90
15156;DHT22;7678;50.058;8.306;2022-10-16T01:31:06;13.50;99.90
15156;DHT22;7678;50.058;8.306;2022-10-16T01:33:39;13.60;99.90
15156;DHT22;7678;50.058;8.306;2022-10-16T01:36:13;13.50;99.90
15156;DHT22;7678;50.058;8.306;2022-10-16T01:38:44;13.50;99.90
15156;DHT22;7678;50.058;8.306;2022-10-16T01:41:17;13.60;99.90
15156;DHT22;7678;50.058;8.306;2022-10-16T01:43:52;13.60;99.90
15156;DHT22;7678;50.058;8.306;2022-10-16T01:46:23;13.60;99.90
15156;DHT22;7678;50.058;8.306;2022-10-16T01:48:52;13.60;99.90
15156;DHT22;7678;50.058;8.306;2022-10-16T01:51:21;13.60;99.90
15156;DHT22;7678;50.058;8.306;2022-10-16T01:53:53;13.60;99.90
15156;DHT22;7678;50.058;8.306;2022-10-16T01:56:24;13.60;99.90
15156;DHT22;7678;50.058;8.306;2022-10-16T01:59:00;13.60;99.90
15156;DHT22;7678;50.058;8.306;2022-10-16T02:01:32;13.50;99.90
15156;DHT22;7678;50.058;8.306;2022-10-16T02:04:06;13.50;99.90
15156;DHT22;7678;50.058;8.306;2022-10-16T02:06:35;13.50;99.90
15156;DHT22;7678;50.058;8.306;2022-10-16T02:09:03;13.50;99.90
15156;DHT22;7678;50.058;8.306;2022-10-16T02:11:31;13.50;99.90
15156;DHT22;7678;50.058;8.306;2022-10-16T02:14:04;13.50;99.90
15156;DHT22;7678;50.058;8.306;2022-10-16T02:16:34;13.50;99.90
15156;DHT22;7678;50.058;8.306;2022-10-16T02:19:02;13.60;99.90
15156;DHT22;7678;50.058;8.306;2022-10-16T02:21:39;13.50;99.90
15156;DHT22;7678;50.058;8.306;2022-10-16T02:24:12;13.60;99.90
15156;DHT22;7678;50.058;8.306;2022-10-16T02:26:49;13.60;99.90
15156;DHT22;7678;50.058;8.306;2022-10-16T02:29:24;13.60;99.90
15156;DHT22;7678;50.058;8.306;2022-10-16T02:31:57;13.60;99.90
15156;DHT22;7678;50.058;8.306;2022-10-16T02:34:27;13.60;99.90
15156;DHT22;7678;50.058;8.306;2022-10-16T02:36:57;13.60;99.90
15156;DHT22;7678;50.058;8.306;2022-10-16T02:39:27;13.70;99.90
15156;DHT22;7678;50.058;8.306;2022-10-16T02:41:56;13.60;99.90
15156;DHT22;7678;50.058;8.306;2022-10-16T02:44:25;13.70;99.90
15156;DHT22;7678;50.058;8.306;2022-10-16T02:46:57;13.60;99.90
15156;DHT22;7678;50.058;8.306;2022-10-16T02:49:26;13.70;99.90
15156;DHT22;7678;50.058;8.306;2022-10-16T02:51:55;13.70;99.90
15156;DHT22;7678;50.058;8.306;2022-10-16T02:54:28;13.70;99.90
15156;DHT22;7678;50.058;8.306;2022-10-16T02:56:56;13.60;99.90
15156;DHT22;7678;50.058;8.306;2022-10-16T02:59:26;13.70;99.90
15156;DHT22;7678;50.058;8.306;2022-10-16T03:01:55;13.60;99.90
15156;DHT22;7678;50.058;8.306;2022-10-16T03:04:23;13.60;99.90
15156;DHT22;7678;50.058;8.306;2022-10-16T03:06:51;13.60;99.90
15156;DHT22;7678;50.058;8.306;2022-10-16T03:09:20;13.60;99.90
15156;DHT22;7678;50.058;8.306;2022-10-16T03:11:48;13.60;99.90
15156;DHT22;7678;50.058;8.306;2022-10-16T03:14:16;13.60;99.90
15156;DHT22;7678;50.058;8.306;2022-10-16T03:16:46;13.60;99.90
15156;DHT22;7678;50.058;8.306;2022-10-16T03:19:17;13.60;99.90
15156;DHT22;7678;50.058;8.306;2022-10-16T03:21:45;13.60;99.90
15156;DHT22;7678;50.058;8.306;2022-10-16T03:24:14;13.60;99.90
15156;DHT22;7678;50.058;8.306;2022-10-16T03:26:43;13.60;99.90
15156;DHT22;7678;50.058;8.306;2022-10-16T03:29:11;13.60;99.90
15156;DHT22;7678;50.058;8.306;2022-10-16T03:31:39;13.60;99.90
15156;DHT22;7678;50.058;8.306;2022-10-16T03:34:08;13.60;99.90
15156;DHT22;7678;50.058;8.306;2022-10-16T03:36:38;13.60;99.90
15156;DHT22;7678;50.058;8.306;2022-10-16T03:39:07;13.60;99.90
15156;DHT22;7678;50.058;8.306;2022-10-16T03:41:35;13.60;99.90
15156;DHT22;7678;50.058;8.306;2022-10-16T03:44:04;13.60;99.90
15156;DHT22;7678;50.058;8.306;2022-10-16T03:46:33;13.60;99.90
15156;DHT22;7678;50.058;8.306;2022-10-16T03:49:01;13.70;99.90
15156;DHT22;7678;50.058;8.306;2022-10-16T03:51:36;13.70;99.90
15156;DHT22;7678;50.058;8.306;2022-10-16T03:54:04;13.70;99.90
15156;DHT22;7678;50.058;8.306;2022-10-16T03:56:32;13.60;99.90
15156;DHT22;7678;50.058;8.306;2022-10-16T03:59:01;13.60;99.90
15156;DHT22;7678;50.058;8.306;2022-10-16T04:01:29;13.60;99.90
15156;DHT22;7678;50.058;8.306;2022-10-16T04:03:57;13.70;99.90
15156;DHT22;7678;50.058;8.306;2022-10-16T04:06:29;13.70;99.90
15156;DHT22;7678;50.058;8.306;2022-10-16T04:08:59;13.70;99.90
15156;DHT22;7678;50.058;8.306;2022-10-16T04:11:33;13.70;99.90
15156;DHT22;7678;50.058;8.306;2022-10-16T04:14:02;13.70;99.90
15156;DHT22;7678;50.058;8.306;2022-10-16T04:16:30;13.70;99.90
15156;DHT22;7678;50.058;8.306;2022-10-16T04:18:59;13.70;99.90
15156;DHT22;7678;50.058;8.306;2022-10-16T04:21:28;13.70;99.90
15156;DHT22;7678;50.058;8.306;2022-10-16T04:23:58;13.70;99.90
15156;DHT22;7678;50.058;8.306;2022-10-16T04:26:27;13.70;99.90
15156;DHT22;7678;50.058;8.306;2022-10-16T04:28:55;13.80;99.90
15156;DHT22;7678;50.058;8.306;2022-10-16T04:31:24;13.80;99.90
15156;DHT22;7678;50.058;8.306;2022-10-16T04:33:55;13.80;99.90
15156;DHT22;7678;50.058;8.306;2022-10-16T04:36:25;13.70;99.90
15156;DHT22;7678;50.058;8.306;2022-10-16T04:38:55;13.70;99.90
15156;DHT22;7678;50.058;8.306;2022-10-16T04:41:24;13.70;99.90
15156;DHT22;7678;50.058;8.306;2022-10-16T04:43:53;13.70;99.90
15156;DHT22;7678;50.058;8.306;2022-10-16T04:46:21;13.70;99.90
15156;DHT22;7678;50.058;8.306;2022-10-16T04:48:50;13.70;99.90
15156;DHT22;7678;50.058;8.306;2022-10-16T04:51:19;13.70;99.90
15156;DHT22;7678;50.058;8.306;2022-10-16T04:53:47;13.70;99.90
15156;DHT22;7678;50.058;8.306;2022-10-16T04:56:16;13.70;99.90
15156;DHT22;7678;50.058;8.306;2022-10-16T04:58:46;13.80;99.90
15156;DHT22;7678;50.058;8.306;2022-10-16T05:01:14;13.80;99.90
15156;DHT22;7678;50.058;8.306;2022-10-16T05:03:43;13.80;99.90
15156;DHT22;7678;50.058;8.306;2022-10-16T05:06:12;13.80;99.90
15156;DHT22;7678;50.058;8.306;2022-10-16T05:08:40;13.80;99.90
15156;DHT22;7678;50.058;8.306;2022-10-16T05:11:09;13.80;99.90
15156;DHT22;7678;50.058;8.306;2022-10-16T05:13:37;13.80;99.90
15156;DHT22;7678;50.058;8.306;2022-10-16T05:16:07;13.80;99.90
15156;DHT22;7678;50.058;8.306;2022-10-16T05:18:35;13.70;99.90
15156;DHT22;7678;50.058;8.306;2022-10-16T05:21:04;13.70;99.90
15156;DHT22;7678;50.058;8.306;2022-10-16T05:23:32;13.70;99.90
15156;DHT22;7678;50.058;8.306;2022-10-16T05:26:01;13.60;99.90
15156;DHT22;7678;50.058;8.306;2022-10-16T05:28:30;13.60;99.90
15156;DHT22;7678;50.058;8.306;2022-10-16T05:30:59;13.60;99.90
15156;DHT22;7678;50.058;8.306;2022-10-16T05:33:28;13.60;99.90
15156;DHT22;7678;50.058;8.306;2022-10-16T05:36:00;13.70;99.90
15156;DHT22;7678;50.058;8.306;2022-10-16T05:38:29;13.70;99.90
15156;DHT22;7678;50.058;8.306;2022-10-16T05:40:58;13.70;99.90
15156;DHT22;7678;50.058;8.306;2022-10-16T05:43:27;13.80;99.90
15156;DHT22;7678;50.058;8.306;2022-10-16T05:45:57;13.80;99.90
15156;DHT22;7678;50.058;8.306;2022-10-16T05:48:27;13.90;99.90
15156;DHT22;7678;50.058;8.306;2022-10-16T05:50:59;13.90;99.90
15156;DHT22;7678;50.058;8.306;2022-10-16T05:53:29;13.80;99.90
15156;DHT22;7678;50.058;8.306;2022-10-16T05:55:59;13.90;99.90
15156;DHT22;7678;50.058;8.306;2022-10-16T05:58:29;13.90;99.90
15156;DHT22;7678;50.058;8.306;2022-10-16T06:01:00;13.80;99.90
15156;DHT22;7678;50.058;8.306;2022-10-16T06:03:30;13.90;99.90
15156;DHT22;7678;50.058;8.306;2022-10-16T06:05:59;13.80;99.90
15156;DHT22;7678;50.058;8.306;2022-10-16T06:08:28;13.80;99.90
15156;DHT22;7678;50.058;8.306;2022-10-16T06:11:01;13.80;99.90
15156;DHT22;7678;50.058;8.306;2022-10-16T06:13:30;13.90;99.90
15156;DHT22;7678;50.058;8.306;2022-10-16T06:16:00;13.90;99.90
15156;DHT22;7678;50.058;8.306;2022-10-16T06:18:32;13.90;99.90
15156;DHT22;7678;50.058;8.306;2022-10-16T06:21:08;13.90;99.90
15156;DHT22;7678;50.058;8.306;2022-10-16T06:23:37;13.90;99.90
15156;DHT22;7678;50.058;8.306;2022-10-16T06:26:08;13.90;99.90
15156;DHT22;7678;50.058;8.306;2022-10-16T06:28:38;13.90;99.90
15156;DHT22;7678;50.058;8.306;2022-10-16T06:31:10;13.90;99.90
15156;DHT22;7678;50.058;8.306;2022-10-16T06:33:50;13.90;99.90
15156;DHT22;7678;50.058;8.306;2022-10-16T06:36:20;14.00;99.90
15156;DHT22;7678;50.058;8.306;2022-10-16T06:38:49;14.00;99.90
15156;DHT22;7678;50.058;8.306;2022-10-16T06:41:20;14.00;99.90
15156;DHT22;7678;50.058;8.306;2022-10-16T06:43:50;14.00;99.90
15156;DHT22;7678;50.058;8.306;2022-10-16T06:46:23;14.00;99.90
15156;DHT22;7678;50.058;8.306;2022-10-16T06:48:54;14.10;99.90
15156;DHT22;7678;50.058;8.306;2022-10-16T06:51:25;14.00;99.90
15156;DHT22;7678;50.058;8.306;2022-10-16T06:53:55;14.10;99.90
15156;DHT22;7678;50.058;8.306;2022-10-16T06:56:31;14.00;99.90
15156;DHT22;7678;50.058;8.306;2022-10-16T06:59:01;14.00;99.90
15156;DHT22;7678;50.058;8.306;2022-10-16T07:01:32;14.00;99.90
15156;DHT22;7678;50.058;8.306;2022-10-16T07:04:03;14.10;99.90
15156;DHT22;7678;50.058;8.306;2022-10-16T07:06:34;14.10;99.90
15156;DHT22;7678;50.058;8.306;2022-10-16T07:09:05;14.10;99.90
15156;DHT22;7678;50.058;8.306;2022-10-16T07:11:47;14.20;99.90
15156;DHT22;7678;50.058;8.306;2022-10-16T07:14:18;14.20;99.90
15156;DHT22;7678;50.058;8.306;2022-10-16T07:16:48;14.20;99.90
15156;DHT22;7678;50.058;8.306;2022-10-16T07:22:59;14.30;99.90
15156;DHT22;7678;50.058;8.306;2022-10-16T07:25:32;14.30;99.90
15156;DHT22;7678;50.058;8.306;2022-10-16T07:28:17;14.30;99.90
15156;DHT22;7678;50.058;8.306;2022-10-16T07:31:07;14.40;99.90
15156;DHT22;7678;50.058;8.306;2022-10-16T07:33:47;14.40;99.90
15156;DHT22;7678;50.058;8.306;2022-10-16T07:36:22;14.50;99.90
15156;DHT22;7678;50.058;8.306;2022-10-16T07:38:57;14.50;99.90
15156;DHT22;7678;50.058;8.306;2022-10-16T07:41:39;14.50;99.90
15156;DHT22;7678;50.058;8.306;2022-10-16T07:44:11;14.60;99.90
15156;DHT22;7678;50.058;8.306;2022-10-16T07:46:49;14.70;99.90
15156;DHT22;7678;50.058;8.306;2022-10-16T07:49:18;14.60;99.90
15156;DHT22;7678;50.058;8.306;2022-10-16T07:52:01;14.60;99.90
15156;DHT22;7678;50.058;8.306;2022-10-16T07:54:32;14.60;99.90
15156;DHT22;7678;50.058;8.306;2022-10-16T07:57:09;14.60;99.90
15156;DHT22;7678;50.058;8.306;2022-10-16T07:59:47;14.60;99.90
15156;DHT22;7678;50.058;8.306;2022-10-16T08:02:21;14.60;99.90
15156;DHT22;7678;50.058;8.306;2022-10-16T08:04:50;14.60;99.90
15156;DHT22;7678;50.058;8.306;2022-10-16T08:07:32;14.60;99.90
15156;DHT22;7678;50.058;8.306;2022-10-16T08:10:17;14.60;99.90
15156;DHT22;7678;50.058;8.306;2022-10-16T08:12:48;14.70;99.90
15156;DHT22;7678;50.058;8.306;2022-10-16T08:15:30;14.60;99.90
15156;DHT22;7678;50.058;8.306;2022-10-16T08:18:17;14.60;99.90
15156;DHT22;7678;50.058;8.306;2022-10-16T08:20:54;14.60;99.90
15156;DHT22;7678;50.058;8.306;2022-10-16T08:23:28;14.70;99.90
15156;DHT22;7678;50.058;8.306;2022-10-16T08:26:14;14.60;99.90
15156;DHT22;7678;50.058;8.306;2022-10-16T08:28:44;14.70;99.90
15156;DHT22;7678;50.058;8.306;2022-10-16T08:31:15;14.70;99.90
15156;DHT22;7678;50.058;8.306;2022-10-16T08:33:48;14.70;99.90
15156;DHT22;7678;50.058;8.306;2022-10-16T08:36:22;14.70;99.90
15156;DHT22;7678;50.058;8.306;2022-10-16T08:38:56;14.80;99.90
15156;DHT22;7678;50.058;8.306;2022-10-16T08:47:49;15.30;99.90
15156;DHT22;7678;50.058;8.306;2022-10-16T08:50:24;15.40;99.90
15156;DHT22;7678;50.058;8.306;2022-10-16T08:52:56;15.40;99.90
15156;DHT22;7678;50.058;8.306;2022-10-16T08:55:37;15.40;99.90
15156;DHT22;7678;50.058;8.306;2022-10-16T08:58:21;15.40;99.90
15156;DHT22;7678;50.058;8.306;2022-10-16T09:01:01;15.50;99.90
15156;DHT22;7678;50.058;8.306;2022-10-16T09:03:41;15.30;99.90
15156;DHT22;7678;50.058;8.306;2022-10-16T09:06:39;15.30;99.90
15156;DHT22;7678;50.058;8.306;2022-10-16T09:09:35;15.30;99.90
15156;DHT22;7678;50.058;8.306;2022-10-16T09:12:19;15.30;99.90
15156;DHT22;7678;50.058;8.306;2022-10-16T09:15:02;15.30;99.90
15156;DHT22;7678;50.058;8.306;2022-10-16T09:17:41;15.20;99.90
15156;DHT22;7678;50.058;8.306;2022-10-16T09:20:32;15.20;99.90
15156;DHT22;7678;50.058;8.306;2022-10-16T09:23:17;15.20;99.90
15156;DHT22;7678;50.058;8.306;2022-10-16T09:25:48;15.20;99.90
15156;DHT22;7678;50.058;8.306;2022-10-16T09:28:25;15.20;99.90
15156;DHT22;7678;50.058;8.306;2022-10-16T09:30:56;15.30;99.90
15156;DHT22;7678;50.058;8.306;2022-10-16T09:33:35;15.30;99.90
15156;DHT22;7678;50.058;8.306;2022-10-16T09:36:08;15.40;99.90
15156;DHT22;7678;50.058;8.306;2022-10-16T09:38:38;15.50;99.90
15156;DHT22;7678;50.058;8.306;2022-10-16T09:41:20;15.50;99.90
15156;DHT22;7678;50.058;8.306;2022-10-16T09:43:52;15.50;99.90
15156;DHT22;7678;50.058;8.306;2022-10-16T09:46:28;15.50;99.90
15156;DHT22;7678;50.058;8.306;2022-10-16T09:49:01;15.50;99.90
15156;DHT22;7678;50.058;8.306;2022-10-16T09:51:40;15.60;99.90
15156;DHT22;7678;50.058;8.306;2022-10-16T09:54:14;15.90;99.90
15156;DHT22;7678;50.058;8.306;2022-10-16T09:56:45;16.20;99.90
15156;DHT22;7678;50.058;8.306;2022-10-16T09:59:20;16.30;99.90
15156;DHT22;7678;50.058;8.306;2022-10-16T10:01:52;16.60;99.90
15156;DHT22;7678;50.058;8.306;2022-10-16T10:04:25;16.70;99.90
15156;DHT22;7678;50.058;8.306;2022-10-16T10:06:57;16.90;99.90
15156;DHT22;7678;50.058;8.306;2022-10-16T10:09:27;17.00;99.90
15156;DHT22;7678;50.058;8.306;2022-10-16T10:12:18;17.10;99.90
15156;DHT22;7678;50.058;8.306;2022-10-16T10:14:55;17.10;99.90
15156;DHT22;7678;50.058;8.306;2022-10-16T10:17:26;17.20;99.90
15156;DHT22;7678;50.058;8.306;2022-10-16T10:20:21;17.30;99.90
15156;DHT22;7678;50.058;8.306;2022-10-16T10:22:59;17.40;99.90
15156;DHT22;7678;50.058;8.306;2022-10-16T10:25:42;17.60;99.90
15156;DHT22;7678;50.058;8.306;2022-10-16T10:31:20;17.80;99.90
15156;DHT22;7678;50.058;8.306;2022-10-16T10:34:16;17.70;99.90
15156;DHT22;7678;50.058;8.306;2022-10-16T10:36:58;17.70;99.90
15156;DHT22;7678;50.058;8.306;2022-10-16T10:39:34;17.80;99.90
15156;DHT22;7678;50.058;8.306;2022-10-16T10:42:17;17.60;99.90
15156;DHT22;7678;50.058;8.306;2022-10-16T10:45:05;17.50;99.90
15156;DHT22;7678;50.058;8.306;2022-10-16T10:48:10;17.70;99.90
15156;DHT22;7678;50.058;8.306;2022-10-16T10:50:47;17.50;99.90
15156;DHT22;7678;50.058;8.306;2022-10-16T10:53:29;17.50;99.90
15156;DHT22;7678;50.058;8.306;2022-10-16T10:56:09;17.60;99.90
15156;DHT22;7678;50.058;8.306;2022-10-16T10:59:08;17.80;99.90
15156;DHT22;7678;50.058;8.306;2022-10-16T11:01:48;17.90;99.90
15156;DHT22;7678;50.058;8.306;2022-10-16T11:04:49;17.80;99.90
15156;DHT22;7678;50.058;8.306;2022-10-16T11:07:24;17.70;99.90
15156;DHT22;7678;50.058;8.306;2022-10-16T11:10:02;17.70;99.90
15156;DHT22;7678;50.058;8.306;2022-10-16T11:12:36;17.60;99.90
15156;DHT22;7678;50.058;8.306;2022-10-16T11:15:12;17.60;99.90
15156;DHT22;7678;50.058;8.306;2022-10-16T11:17:49;17.70;99.90
15156;DHT22;7678;50.058;8.306;2022-10-16T11:20:28;17.80;99.90
15156;DHT22;7678;50.058;8.306;2022-10-16T11:23:10;18.00;99.90
15156;DHT22;7678;50.058;8.306;2022-10-16T11:25:41;18.20;99.90
15156;DHT22;7678;50.058;8.306;2022-10-16T11:28:13;18.40;99.90
15156;DHT22;7678;50.058;8.306;2022-10-16T11:30:49;18.40;99.90
15156;DHT22;7678;50.058;8.306;2022-10-16T11:33:27;18.50;99.90
15156;DHT22;7678;50.058;8.306;2022-10-16T11:36:19;18.40;99.90
15156;DHT22;7678;50.058;8.306;2022-10-16T11:39:10;18.50;99.90
15156;DHT22;7678;50.058;8.306;2022-10-16T11:41:45;18.70;99.90
15156;DHT22;7678;50.058;8.306;2022-10-16T11:44:32;18.80;99.90
15156;DHT22;7678;50.058;8.306;2022-10-16T11:47:12;19.00;99.90
15156;DHT22;7678;50.058;8.306;2022-10-16T11:50:23;18.90;99.90
15156;DHT22;7678;50.058;8.306;2022-10-16T11:53:00;19.10;99.90
15156;DHT22;7678;50.058;8.306;2022-10-16T11:55:37;19.20;99.90
15156;DHT22;7678;50.058;8.306;2022-10-16T11:58:21;19.10;99.90
15156;DHT22;7678;50.058;8.306;2022-10-16T12:00:58;19.00;99.90
15156;DHT22;7678;50.058;8.306;2022-10-16T12:03:33;19.30;99.90
15156;DHT22;7678;50.058;8.306;2022-10-16T12:06:39;19.50;99.90
15156;DHT22;7678;50.058;8.306;2022-10-16T12:09:14;19.30;99.90
15156;DHT22;7678;50.058;8.306;2022-10-16T12:11:44;19.10;99.90
15156;DHT22;7678;50.058;8.306;2022-10-16T12:14:40;18.80;99.90
15156;DHT22;7678;50.058;8.306;2022-10-16T12:17:35;18.60;99.90
15156;DHT22;7678;50.058;8.306;2022-10-16T12:20:21;18.50;99.90
15156;DHT22;7678;50.058;8.306;2022-10-16T12:22:53;18.30;99.90
15156;DHT22;7678;50.058;8.306;2022-10-16T12:25:27;18.50;99.90
15156;DHT22;7678;50.058;8.306;2022-10-16T12:28:18;18.80;99.90
15156;DHT22;7678;50.058;8.306;2022-10-16T12:30:55;19.30;99.90
15156;DHT22;7678;50.058;8.306;2022-10-16T12:33:25;19.00;99.90
15156;DHT22;7678;50.058;8.306;2022-10-16T12:35:54;18.90;99.90
15156;DHT22;7678;50.058;8.306;2022-10-16T12:38:28;18.90;99.90
15156;DHT22;7678;50.058;8.306;2022-10-16T12:41:00;18.90;99.90
15156;DHT22;7678;50.058;8.306;2022-10-16T12:43:37;18.90;99.90
15156;DHT22;7678;50.058;8.306;2022-10-16T12:46:23;19.10;99.90
15156;DHT22;7678;50.058;8.306;2022-10-16T12:48:52;19.00;99.90
15156;DHT22;7678;50.058;8.306;2022-10-16T12:51:36;18.90;99.90
15156;DHT22;7678;50.058;8.306;2022-10-16T12:54:12;19.00;99.90
15156;DHT22;7678;50.058;8.306;2022-10-16T12:56:54;19.00;99.90
15156;DHT22;7678;50.058;8.306;2022-10-16T12:59:32;18.90;99.90
15156;DHT22;7678;50.058;8.306;2022-10-16T13:05:18;19.00;99.90
15156;DHT22;7678;50.058;8.306;2022-10-16T13:07:57;19.00;99.90
15156;DHT22;7678;50.058;8.306;2022-10-16T13:10:34;18.90;99.90
15156;DHT22;7678;50.058;8.306;2022-10-16T13:13:18;18.90;99.90
15156;DHT22;7678;50.058;8.306;2022-10-16T13:15:57;19.10;99.90
15156;DHT22;7678;50.058;8.306;2022-10-16T13:18:35;19.40;99.90
15156;DHT22;7678;50.058;8.306;2022-10-16T13:21:22;19.40;99.90
15156;DHT22;7678;50.058;8.306;2022-10-16T13:23:58;19.40;99.90
15156;DHT22;7678;50.058;8.306;2022-10-16T13:26:34;19.40;99.90
15156;DHT22;7678;50.058;8.306;2022-10-16T13:29:06;19.50;99.90
15156;DHT22;7678;50.058;8.306;2022-10-16T13:31:37;19.40;99.90
15156;DHT22;7678;50.058;8.306;2022-10-16T13:34:12;19.30;99.90
15156;DHT22;7678;50.058;8.306;2022-10-16T13:36:49;19.40;99.90
15156;DHT22;7678;50.058;8.306;2022-10-16T13:39:22;19.30;99.90
15156;DHT22;7678;50.058;8.306;2022-10-16T13:42:04;19.30;99.90
15156;DHT22;7678;50.058;8.306;2022-10-16T13:44:38;19.20;99.90
15156;DHT22;7678;50.058;8.306;2022-10-16T13:47:15;19.10;99.90
15156;DHT22;7678;50.058;8.306;2022-10-16T13:49:45;19.10;99.90
15156;DHT22;7678;50.058;8.306;2022-10-16T13:52:17;19.10;99.90
15156;DHT22;7678;50.058;8.306;2022-10-16T13:54:47;19.30;99.90
15156;DHT22;7678;50.058;8.306;2022-10-16T13:57:27;19.10;99.90
15156;DHT22;7678;50.058;8.306;2022-10-16T13:59:57;19.20;99.90
15156;DHT22;7678;50.058;8.306;2022-10-16T14:02:28;19.20;99.90
15156;DHT22;7678;50.058;8.306;2022-10-16T14:04:58;19.20;99.90
15156;DHT22;7678;50.058;8.306;2022-10-16T14:07:30;19.20;99.90
15156;DHT22;7678;50.058;8.306;2022-10-16T14:10:04;19.10;99.90
15156;DHT22;7678;50.058;8.306;2022-10-16T14:12:33;19.00;99.90
15156;DHT22;7678;50.058;8.306;2022-10-16T14:15:02;18.90;99.90
15156;DHT22;7678;50.058;8.306;2022-10-16T14:17:32;18.80;99.90
15156;DHT22;7678;50.058;8.306;2022-10-16T14:20:04;18.90;99.90
15156;DHT22;7678;50.058;8.306;2022-10-16T14:22:37;19.00;99.90
15156;DHT22;7678;50.058;8.306;2022-10-16T14:25:23;19.20;99.90
15156;DHT22;7678;50.058;8.306;2022-10-16T14:28:03;19.20;99.90
15156;DHT22;7678;50.058;8.306;2022-10-16T14:30:32;19.10;99.90
15156;DHT22;7678;50.058;8.306;2022-10-16T14:33:04;19.10;99.90
15156;DHT22;7678;50.058;8.306;2022-10-16T14:35:34;19.20;99.90
15156;DHT22;7678;50.058;8.306;2022-10-16T14:38:18;19.30;99.90
15156;DHT22;7678;50.058;8.306;2022-10-16T14:40:49;19.20;99.90
15156;DHT22;7678;50.058;8.306;2022-10-16T14:43:21;19.20;99.90
15156;DHT22;7678;50.058;8.306;2022-10-16T14:45:52;19.20;99.90
15156;DHT22;7678;50.058;8.306;2022-10-16T14:48:24;19.10;99.90
15156;DHT22;7678;50.058;8.306;2022-10-16T14:50:55;19.10;99.90
15156;DHT22;7678;50.058;8.306;2022-10-16T14:53:25;19.00;99.90
15156;DHT22;7678;50.058;8.306;2022-10-16T14:55:53;19.00;99.90
15156;DHT22;7678;50.058;8.306;2022-10-16T14:58:23;19.00;99.90
15156;DHT22;7678;50.058;8.306;2022-10-16T15:00:55;19.00;99.90
15156;DHT22;7678;50.058;8.306;2022-10-16T15:03:24;19.00;99.90
15156;DHT22;7678;50.058;8.306;2022-10-16T15:05:52;19.00;99.90
15156;DHT22;7678;50.058;8.306;2022-10-16T15:08:20;19.00;99.90
15156;DHT22;7678;50.058;8.306;2022-10-16T15:10:51;19.00;99.90
15156;DHT22;7678;50.058;8.306;2022-10-16T15:13:19;18.90;99.90
15156;DHT22;7678;50.058;8.306;2022-10-16T15:15:47;18.90;99.90
15156;DHT22;7678;50.058;8.306;2022-10-16T15:18:18;18.90;99.90
15156;DHT22;7678;50.058;8.306;2022-10-16T15:20:49;18.90;99.90
15156;DHT22;7678;50.058;8.306;2022-10-16T15:23:19;18.90;99.90
15156;DHT22;7678;50.058;8.306;2022-10-16T15:25:48;18.80;99.90
15156;DHT22;7678;50.058;8.306;2022-10-16T15:28:19;18.80;99.90
15156;DHT22;7678;50.058;8.306;2022-10-16T15:30:49;18.80;99.90
15156;DHT22;7678;50.058;8.306;2022-10-16T15:33:19;18.80;99.90
15156;DHT22;7678;50.058;8.306;2022-10-16T15:35:50;18.70;99.90
15156;DHT22;7678;50.058;8.306;2022-10-16T15:38:19;18.60;99.90
15156;DHT22;7678;50.058;8.306;2022-10-16T15:40:49;18.60;99.90
15156;DHT22;7678;50.058;8.306;2022-10-16T15:43:19;18.60;99.90
15156;DHT22;7678;50.058;8.306;2022-10-16T15:45:59;18.60;99.90
15156;DHT22;7678;50.058;8.306;2022-10-16T15:48:28;18.50;99.90
15156;DHT22;7678;50.058;8.306;2022-10-16T15:50:57;18.50;99.90
15156;DHT22;7678;50.058;8.306;2022-10-16T15:53:25;18.40;99.90
15156;DHT22;7678;50.058;8.306;2022-10-16T15:55:54;18.40;99.90
15156;DHT22;7678;50.058;8.306;2022-10-16T15:58:23;18.40;99.90
15156;DHT22;7678;50.058;8.306;2022-10-16T16:00:56;18.40;99.90
15156;DHT22;7678;50.058;8.306;2022-10-16T16:03:28;18.30;99.90
15156;DHT22;7678;50.058;8.306;2022-10-16T16:05:57;18.30;99.90
15156;DHT22;7678;50.058;8.306;2022-10-16T16:08:26;18.30;99.90
15156;DHT22;7678;50.058;8.306;2022-10-16T16:10:59;18.20;99.90
15156;DHT22;7678;50.058;8.306;2022-10-16T16:13:31;18.20;99.90
15156;DHT22;7678;50.058;8.306;2022-10-16T16:16:00;18.30;99.90
15156;DHT22;7678;50.058;8.306;2022-10-16T16:18:29;18.20;99.90
15156;DHT22;7678;50.058;8.306;2022-10-16T16:20:59;18.10;99.90
15156;DHT22;7678;50.058;8.306;2022-10-16T16:23:35;17.90;99.90
15156;DHT22;7678;50.058;8.306;2022-10-16T16:26:07;17.90;99.90
15156;DHT22;7678;50.058;8.306;2022-10-16T16:28:42;17.90;99.90
15156;DHT22;7678;50.058;8.306;2022-10-16T16:31:11;17.90;99.90
15156;DHT22;7678;50.058;8.306;2022-10-16T16:33:50;17.90;99.90
15156;DHT22;7678;50.058;8.306;2022-10-16T16:37:00;17.80;99.90
15156;DHT22;7678;50.058;8.306;2022-10-16T16:39:28;17.70;99.90
15156;DHT22;7678;50.058;8.306;2022-10-16T16:41:57;17.70;99.90
15156;DHT22;7678;50.058;8.306;2022-10-16T16:44:28;17.60;99.90